Time,TemperatureF,DewpointF,PressureIn,WindDirection,WindDirectionDegrees,WindSpeedMPH,WindSpeedGustMPH,Humidity,HourlyPrecipIn,Conditions,Clouds,dailyrainin,SoftwareType,DateUTC
2013-03-23 00:01:00,18.0,16.0,29.88,West,270,4.0,8.0,90,0.00,,,0.00,,2013-03-23 06:01:00,
2013-03-23 00:11:00,18.0,16.0,29.88,West,270,4.0,8.0,90,0.00,,,0.00,,2013-03-23 06:11:00,
2013-03-23 00:22:00,18.0,16.0,29.88,West,259,5.0,7.0,90,0.00,,,0.00,,2013-03-23 06:22:00,
2013-03-23 00:31:00,18.0,16.0,29.88,West,262,4.0,7.0,90,0.00,,,0.00,,2013-03-23 06:31:00,
2013-03-23 00:42:00,18.0,16.0,29.88,West,262,4.0,7.0,90,0.00,,,0.00,,2013-03-23 06:42:00,
2013-03-23 00:52:00,18.0,16.0,29.88,WSW,258,2.0,6.0,90,0.00,,,0.00,,2013-03-23 06:52:00,
2013-03-23 01:02:00,18.0,16.0,29.88,West,261,3.0,5.0,90,0.00,,,0.00,,2013-03-23 07:02:00,
2013-03-23 01:11:00,18.0,16.0,29.88,West,261,3.0,5.0,90,0.00,,,0.00,,2013-03-23 07:11:00,
2013-03-23 01:22:00,18.0,16.0,29.89,West,264,3.0,6.0,90,0.00,,,0.00,,2013-03-23 07:22:00,
2013-03-23 01:32:00,18.0,16.0,29.89,West,275,3.0,6.0,90,0.00,,,0.00,,2013-03-23 07:32:00,
2013-03-23 01:41:00,18.0,16.0,29.89,West,275,3.0,6.0,90,0.00,,,0.00,,2013-03-23 07:41:00,
2013-03-23 01:52:00,18.0,16.0,29.89,West,274,5.0,8.0,90,0.00,,,0.00,,2013-03-23 07:52:00,
2013-03-23 02:02:00,18.0,16.0,29.90,West,277,4.0,5.0,90,0.00,,,0.00,,2013-03-23 08:02:00,
2013-03-23 02:12:00,18.0,16.0,29.90,West,277,4.0,5.0,90,0.00,,,0.00,,2013-03-23 08:12:00,
2013-03-23 02:22:00,18.0,16.0,29.90,WNW,296,8.0,10.0,90,0.00,,,0.00,,2013-03-23 08:22:00,
2013-03-23 02:31:00,18.0,16.0,29.90,WNW,292,4.0,9.0,90,0.00,,,0.00,,2013-03-23 08:31:00,
2013-03-23 02:41:00,18.0,16.0,29.90,WNW,292,4.0,9.0,90,0.00,,,0.00,,2013-03-23 08:41:00,
2013-03-23 02:52:00,18.0,16.0,29.91,WNW,298,6.0,11.0,90,0.00,,,0.00,,2013-03-23 08:52:00,
2013-03-23 03:01:00,17.0,14.0,29.91,WNW,294,7.0,9.0,89,0.00,,,0.00,,2013-03-23 09:01:00,
2013-03-23 03:11:00,17.0,14.0,29.91,WNW,294,7.0,9.0,89,0.00,,,0.00,,2013-03-23 09:11:00,
2013-03-23 03:21:00,17.0,14.0,29.91,WNW,286,6.0,10.0,89,0.00,,,0.00,,2013-03-23 09:21:00,
2013-03-23 03:32:00,17.0,14.0,29.91,West,280,8.0,10.0,89,0.00,,,0.00,,2013-03-23 09:32:00,
2013-03-23 03:42:00,17.0,14.0,29.91,West,280,8.0,10.0,89,0.00,,,0.00,,2013-03-23 09:42:00,
2013-03-23 03:53:00,17.0,15.0,29.91,WNW,285,5.0,10.0,90,0.00,,,0.00,,2013-03-23 09:53:00,
2013-03-23 04:02:00,17.0,14.0,29.91,West,263,7.0,10.0,89,0.00,,,0.00,,2013-03-23 10:02:00,
2013-03-23 04:12:00,17.0,14.0,29.91,West,263,7.0,10.0,89,0.00,,,0.00,,2013-03-23 10:12:00,
2013-03-23 04:22:00,17.0,14.0,29.91,West,277,5.0,8.0,89,0.00,,,0.00,,2013-03-23 10:22:00,
2013-03-23 04:33:00,16.0,13.0,29.91,West,271,6.0,8.0,88,0.00,,,0.00,,2013-03-23 10:33:00,
2013-03-23 04:42:00,16.0,13.0,29.91,West,271,6.0,8.0,88,0.00,,,0.00,,2013-03-23 10:42:00,
2013-03-23 04:52:00,15.0,12.0,29.91,West,266,3.0,5.0,87,0.00,,,0.00,,2013-03-23 10:52:00,
2013-03-23 05:02:00,14.0,11.0,29.92,West,266,3.0,4.0,87,0.00,,,0.00,,2013-03-23 11:02:00,
2013-03-23 05:21:00,14.0,11.0,29.92,West,274,4.0,6.0,88,0.00,,,0.00,,2013-03-23 11:21:00,
2013-03-23 05:32:00,14.0,11.0,29.92,West,276,5.0,6.0,87,0.00,,,0.00,,2013-03-23 11:32:00,
2013-03-23 05:41:00,14.0,11.0,29.92,West,276,5.0,6.0,87,0.00,,,0.00,,2013-03-23 11:41:00,
2013-03-23 05:52:00,14.0,11.0,29.93,WNW,285,4.0,7.0,87,0.00,,,0.00,,2013-03-23 11:52:00,
2013-03-23 06:01:00,14.0,11.0,29.93,West,271,5.0,7.0,88,0.00,,,0.00,,2013-03-23 12:01:00,
2013-03-23 06:12:00,14.0,11.0,29.93,West,271,5.0,7.0,88,0.00,,,0.00,,2013-03-23 12:12:00,
2013-03-23 06:22:00,14.0,11.0,29.94,West,273,6.0,8.0,87,0.00,,,0.00,,2013-03-23 12:22:00,
2013-03-23 06:32:00,14.0,11.0,29.94,West,281,6.0,8.0,87,0.00,,,0.00,,2013-03-23 12:32:00,
2013-03-23 06:42:00,14.0,11.0,29.94,West,281,6.0,8.0,87,0.00,,,0.00,,2013-03-23 12:42:00,
2013-03-23 06:53:00,14.0,11.0,29.95,West,281,6.0,8.0,88,0.00,,,0.00,,2013-03-23 12:53:00,
2013-03-23 07:01:00,14.0,11.0,29.96,West,268,5.0,8.0,87,0.00,,,0.00,,2013-03-23 13:01:00,
2013-03-23 07:11:00,14.0,11.0,29.96,West,268,5.0,8.0,87,0.00,,,0.00,,2013-03-23 13:11:00,
2013-03-23 07:21:00,14.0,11.0,29.96,West,263,4.0,7.0,88,0.00,,,0.00,,2013-03-23 13:21:00,
2013-03-23 07:32:00,14.0,11.0,29.97,WSW,251,5.0,7.0,87,0.00,,,0.00,,2013-03-23 13:32:00,
2013-03-23 07:42:00,14.0,11.0,29.97,WSW,251,5.0,7.0,87,0.00,,,0.00,,2013-03-23 13:42:00,
2013-03-23 07:53:00,14.0,11.0,29.98,West,265,5.0,6.0,88,0.00,,,0.00,,2013-03-23 13:53:00,
2013-03-23 08:11:00,14.0,11.0,29.99,West,264,5.0,8.0,87,0.00,,,0.00,,2013-03-23 14:11:00,
2013-03-23 08:21:00,15.0,12.0,30.00,West,261,4.0,6.0,88,0.00,,,0.00,,2013-03-23 14:21:00,
2013-03-23 08:31:00,15.0,12.0,30.00,West,260,3.0,5.0,88,0.00,,,0.00,,2013-03-23 14:31:00,
2013-03-23 08:42:00,15.0,12.0,30.00,West,260,3.0,5.0,88,0.00,,,0.00,,2013-03-23 14:42:00,
2013-03-23 08:52:00,16.0,13.0,30.01,West,273,3.0,6.0,89,0.00,,,0.00,,2013-03-23 14:52:00,
2013-03-23 09:02:00,16.0,13.0,30.01,West,275,4.0,6.0,89,0.00,,,0.00,,2013-03-23 15:02:00,
2013-03-23 09:11:00,16.0,13.0,30.01,West,275,4.0,6.0,89,0.00,,,0.00,,2013-03-23 15:11:00,
2013-03-23 09:22:00,17.0,14.0,30.01,West,259,4.0,6.0,89,0.00,,,0.00,,2013-03-23 15:22:00,
2013-03-23 09:32:00,16.0,13.0,30.02,West,277,6.0,10.0,89,0.00,,,0.00,,2013-03-23 15:32:00,
2013-03-23 09:43:00,16.0,13.0,30.02,West,277,6.0,10.0,89,0.00,,,0.00,,2013-03-23 15:43:00,
2013-03-23 09:52:00,17.0,14.0,30.03,West,263,5.0,8.0,89,0.00,,,0.00,,2013-03-23 15:52:00,
2013-03-23 10:02:00,17.0,14.0,30.03,WNW,286,5.0,7.0,89,0.00,,,0.00,,2013-03-23 16:02:00,
2013-03-23 10:12:00,17.0,14.0,30.03,WNW,286,5.0,7.0,89,0.00,,,0.00,,2013-03-23 16:12:00,
2013-03-23 10:22:00,17.0,14.0,30.03,WNW,294,4.0,6.0,89,0.00,,,0.00,,2013-03-23 16:22:00,
2013-03-23 10:32:00,18.0,16.0,30.03,West,263,5.0,8.0,90,0.00,,,0.00,,2013-03-23 16:32:00,
2013-03-23 10:42:00,18.0,16.0,30.03,West,263,5.0,8.0,90,0.00,,,0.00,,2013-03-23 16:42:00,
2013-03-23 10:53:00,17.0,14.0,30.04,WSW,250,6.0,8.0,89,0.00,,,0.00,,2013-03-23 16:53:00,
2013-03-23 11:02:00,18.0,16.0,30.04,WNW,286,3.0,6.0,90,0.00,,,0.00,,2013-03-23 17:02:00,
2013-03-23 11:11:00,18.0,16.0,30.04,West,277,8.0,11.0,90,0.00,,,0.00,,2013-03-23 17:11:00,
2013-03-23 11:22:00,18.0,16.0,30.04,West,277,8.0,11.0,90,0.00,,,0.00,,2013-03-23 17:22:00,
2013-03-23 11:32:00,18.0,16.0,30.05,WNW,292,5.0,8.0,90,0.00,,,0.00,,2013-03-23 17:32:00,
2013-03-23 11:42:00,18.0,16.0,30.05,WNW,292,5.0,8.0,90,0.00,,,0.00,,2013-03-23 17:42:00,
2013-03-23 11:52:00,18.0,16.0,30.05,WNW,292,6.0,9.0,90,0.00,,,0.00,,2013-03-23 17:52:00,
2013-03-23 12:02:00,19.0,17.0,30.05,West,279,5.0,8.0,90,0.00,,,0.00,,2013-03-23 18:02:00,
2013-03-23 12:12:00,19.0,17.0,30.05,West,279,5.0,8.0,90,0.00,,,0.00,,2013-03-23 18:12:00,
2013-03-23 12:22:00,19.0,17.0,30.06,West,279,4.0,9.0,90,0.00,,,0.00,,2013-03-23 18:22:00,
2013-03-23 12:31:00,19.0,17.0,30.05,West,268,4.0,9.0,90,0.01,,,0.01,,2013-03-23 18:31:00,
2013-03-23 12:42:00,19.0,17.0,30.05,West,268,4.0,9.0,90,0.01,,,0.01,,2013-03-23 18:42:00,
2013-03-23 12:52:00,18.0,16.0,30.06,West,279,5.0,11.0,90,0.01,,,0.01,,2013-03-23 18:52:00,
2013-03-23 13:02:00,20.0,18.0,30.05,WSW,253,4.0,7.0,91,0.01,,,0.01,,2013-03-23 19:02:00,
2013-03-23 13:12:00,20.0,18.0,30.05,WSW,253,4.0,7.0,91,0.01,,,0.01,,2013-03-23 19:12:00,
2013-03-23 13:22:00,20.0,17.0,30.05,WSW,254,7.0,12.0,89,0.02,,,0.02,,2013-03-23 19:22:00,
2013-03-23 13:32:00,20.0,17.0,30.05,West,273,8.0,11.0,87,0.02,,,0.03,,2013-03-23 19:32:00,
2013-03-23 13:42:00,20.0,17.0,30.05,West,273,8.0,11.0,87,0.02,,,0.03,,2013-03-23 19:42:00,
2013-03-23 13:52:00,21.0,17.0,30.04,West,279,5.0,12.0,84,0.02,,,0.03,,2013-03-23 19:52:00,
2013-03-23 14:02:00,20.0,16.0,30.04,WNW,288,7.0,10.0,85,0.02,,,0.03,,2013-03-23 20:02:00,
2013-03-23 14:12:00,20.0,16.0,30.04,WNW,288,7.0,10.0,85,0.02,,,0.03,,2013-03-23 20:12:00,
2013-03-23 14:22:00,21.0,16.0,30.04,WSW,244,8.0,12.0,81,0.01,,,0.03,,2013-03-23 20:22:00,
2013-03-23 14:32:00,21.0,16.0,30.04,WSW,250,7.0,12.0,79,0.01,,,0.04,,2013-03-23 20:32:00,
2013-03-23 14:42:00,21.0,16.0,30.04,WSW,250,7.0,12.0,79,0.01,,,0.04,,2013-03-23 20:42:00,
2013-03-23 14:52:00,21.0,15.0,30.03,West,277,8.0,12.0,76,0.01,,,0.04,,2013-03-23 20:52:00,
2013-03-23 15:02:00,21.0,15.0,30.03,WSW,246,7.0,10.0,77,0.01,,,0.04,,2013-03-23 21:02:00,
2013-03-23 15:12:00,21.0,15.0,30.03,WSW,246,7.0,10.0,77,0.01,,,0.04,,2013-03-23 21:12:00,
2013-03-23 15:22:00,21.0,14.0,30.03,SW,221,7.0,12.0,73,0.01,,,0.04,,2013-03-23 21:22:00,
2013-03-23 15:32:00,21.0,14.0,30.02,West,267,11.0,15.0,75,0.00,,,0.04,,2013-03-23 21:32:00,
2013-03-23 15:42:00,21.0,14.0,30.02,West,267,11.0,15.0,75,0.00,,,0.04,,2013-03-23 21:42:00,
2013-03-23 15:53:00,21.0,15.0,30.03,West,269,9.0,15.0,78,0.00,,,0.04,,2013-03-23 21:53:00,
2013-03-23 16:02:00,21.0,15.0,30.03,NW,317,6.0,11.0,78,0.00,,,0.04,,2013-03-23 22:02:00,
2013-03-23 16:12:00,21.0,15.0,30.03,NW,317,6.0,11.0,78,0.00,,,0.04,,2013-03-23 22:12:00,
2013-03-23 16:22:00,20.0,15.0,30.03,WNW,296,5.0,11.0,82,0.00,,,0.04,,2013-03-23 22:22:00,
2013-03-23 16:32:00,21.0,17.0,30.03,WNW,294,5.0,10.0,83,0.00,,,0.04,,2013-03-23 22:32:00,
2013-03-23 16:42:00,21.0,17.0,30.03,WNW,294,5.0,10.0,83,0.00,,,0.04,,2013-03-23 22:42:00,
2013-03-23 16:53:00,21.0,16.0,30.03,NW,322,6.0,9.0,81,0.00,,,0.04,,2013-03-23 22:53:00,
2013-03-23 17:01:00,24.0,17.0,30.03,SW,227,5.0,12.0,75,0.00,,,0.04,,2013-03-23 23:01:00,
2013-03-23 17:12:00,24.0,17.0,30.03,SW,227,5.0,12.0,75,0.00,,,0.04,,2013-03-23 23:12:00,
2013-03-23 17:22:00,22.0,15.0,30.03,West,263,3.0,9.0,74,0.00,,,0.04,,2013-03-23 23:22:00,
2013-03-23 17:32:00,24.0,15.0,30.02,SW,225,9.0,13.0,68,0.00,,,0.04,,2013-03-23 23:32:00,
2013-03-23 17:42:00,24.0,15.0,30.02,SW,225,9.0,13.0,68,0.00,,,0.04,,2013-03-23 23:42:00,
2013-03-23 17:52:00,22.0,13.0,30.02,SW,227,10.0,13.0,68,0.00,,,0.04,,2013-03-23 23:52:00,
2013-03-23 18:01:00,23.0,13.0,30.01,SW,223,9.0,13.0,65,0.00,,,0.04,,2013-03-24 00:01:00,
2013-03-23 18:11:00,23.0,13.0,30.01,SW,223,9.0,13.0,65,0.00,,,0.04,,2013-03-24 00:11:00,
2013-03-23 18:22:00,23.0,12.0,30.01,West,259,6.0,10.0,63,0.00,,,0.04,,2013-03-24 00:22:00,
2013-03-23 18:32:00,24.0,11.0,30.01,SW,226,7.0,11.0,57,0.00,,,0.04,,2013-03-24 00:32:00,
2013-03-23 18:41:00,24.0,11.0,30.01,SW,226,7.0,11.0,57,0.00,,,0.04,,2013-03-24 00:41:00,
2013-03-23 18:52:00,24.0,12.0,30.01,SW,232,4.0,11.0,59,0.00,,,0.04,,2013-03-24 00:52:00,
2013-03-23 19:01:00,24.0,11.0,30.02,West,259,9.0,17.0,56,0.00,,,0.04,,2013-03-24 01:01:00,
2013-03-23 19:11:00,24.0,11.0,30.02,West,259,9.0,17.0,56,0.00,,,0.04,,2013-03-24 01:11:00,
2013-03-23 19:22:00,23.0,10.0,30.02,West,271,8.0,11.0,58,0.00,,,0.04,,2013-03-24 01:22:00,
2013-03-23 19:32:00,23.0,11.0,30.02,WNW,292,7.0,9.0,60,0.00,,,0.04,,2013-03-24 01:32:00,
2013-03-23 19:41:00,23.0,11.0,30.02,WNW,292,7.0,9.0,60,0.00,,,0.04,,2013-03-24 01:41:00,
2013-03-23 19:52:00,23.0,12.0,30.02,West,273,7.0,9.0,61,0.00,,,0.04,,2013-03-24 01:52:00,
2013-03-23 20:02:00,22.0,12.0,30.02,West,269,8.0,13.0,64,0.00,,,0.04,,2013-03-24 02:02:00,
2013-03-23 20:11:00,22.0,12.0,30.02,West,269,8.0,13.0,64,0.00,,,0.04,,2013-03-24 02:11:00,
2013-03-23 20:21:00,21.0,10.0,30.02,SW,224,4.0,7.0,62,0.00,,,0.04,,2013-03-24 02:21:00,
2013-03-23 20:32:00,21.0,10.0,30.02,SW,223,0.0,4.0,63,0.00,,,0.04,,2013-03-24 02:32:00,
2013-03-23 20:42:00,21.0,10.0,30.02,SW,223,0.0,4.0,63,0.00,,,0.04,,2013-03-24 02:42:00,
2013-03-23 20:52:00,20.0,13.0,30.02,SW,223,1.0,4.0,73,0.00,,,0.04,,2013-03-24 02:52:00,
2013-03-23 21:01:00,20.0,15.0,30.03,SW,223,1.0,4.0,79,0.00,,,0.04,,2013-03-24 03:01:00,
2013-03-23 21:11:00,20.0,15.0,30.03,SW,223,1.0,4.0,79,0.00,,,0.04,,2013-03-24 03:11:00,
2013-03-23 21:21:00,20.0,15.0,30.03,WNW,284,2.0,4.0,82,0.00,,,0.04,,2013-03-24 03:21:00,
2013-03-23 21:32:00,19.0,15.0,30.04,WNW,284,2.0,3.0,84,0.00,,,0.04,,2013-03-24 03:32:00,
2013-03-23 21:42:00,19.0,15.0,30.04,WNW,284,2.0,3.0,84,0.00,,,0.04,,2013-03-24 03:42:00,
2013-03-23 21:53:00,18.0,15.0,30.04,WNW,284,2.0,3.0,86,0.00,,,0.04,,2013-03-24 03:53:00,
2013-03-23 22:02:00,18.0,15.0,30.04,WNW,284,2.0,4.0,87,0.00,,,0.04,,2013-03-24 04:02:00,
2013-03-23 22:12:00,18.0,15.0,30.04,WNW,284,2.0,4.0,87,0.00,,,0.04,,2013-03-24 04:12:00,
2013-03-23 22:22:00,18.0,15.0,30.05,NW,308,1.0,3.0,88,0.00,,,0.04,,2013-03-24 04:22:00,
2013-03-23 22:32:00,18.0,15.0,30.04,NW,308,2.0,3.0,88,0.00,,,0.04,,2013-03-24 04:32:00,
2013-03-23 22:42:00,18.0,15.0,30.04,NW,308,2.0,3.0,88,0.00,,,0.04,,2013-03-24 04:42:00,
2013-03-23 22:52:00,18.0,15.0,30.04,NW,308,1.0,3.0,88,0.00,,,0.04,,2013-03-24 04:52:00,
2013-03-23 23:02:00,18.0,15.0,30.04,NW,308,0.0,3.0,88,0.00,,,0.04,,2013-03-24 05:02:00,
2013-03-23 23:12:00,18.0,15.0,30.04,NW,308,0.0,3.0,88,0.00,,,0.04,,2013-03-24 05:12:00,
2013-03-23 23:22:00,18.0,15.0,30.05,NW,308,1.0,3.0,88,0.00,,,0.04,,2013-03-24 05:22:00,
2013-03-23 23:32:00,18.0,14.0,30.05,NW,308,2.0,4.0,85,0.00,,,0.04,,2013-03-24 05:32:00,
2013-03-23 23:42:00,18.0,14.0,30.05,NW,308,2.0,4.0,85,0.00,,,0.04,,2013-03-24 05:42:00,
2013-03-23 23:51:00,18.0,13.0,30.03,South,186,0.0,1.0,82,0.00,,,0.04,,2013-03-24 05:51:00,